Time;durP1;ratioP1;P1;durP2;ratioP2;P2;SDS_P1;SDS_P2;PMS_P1;PMS_P2;Temp;Humidity;BMP_temperature;BMP_pressure;BME280_temperature;BME280_humidity;BME280_pressure;Samples;Min_cycle;Max_cycle;Signal;HPM_P1;HPM_P2
2021/12/27 00:01:20;;;;;;;20.45;15.45;;;0.20;99.90;;;;;;5063065;28;20135;-61
2021/12/27 00:03:49;;;;;;;20.83;15.50;;;0.20;99.90;;;;;;5061103;28;20402;-61
2021/12/27 00:06:15;;;;;;;23.20;16.45;;;0.20;99.90;;;;;;5060061;28;20513;-61
2021/12/27 00:08:41;;;;;;;25.02;16.05;;;0.20;99.90;;;;;;5060568;28;20064;-62
2021/12/27 00:11:09;;;;;;;19.55;14.15;;;0.20;99.90;;;;;;5054203;28;20074;-61
2021/12/27 00:13:35;;;;;;;21.53;15.00;;;0.20;99.90;;;;;;5060464;28;20088;-61
2021/12/27 00:16:01;;;;;;;24.92;16.52;;;0.20;99.90;;;;;;5061341;28;20365;-61
2021/12/27 00:18:26;;;;;;;21.45;15.35;;;0.30;99.90;;;;;;5065620;28;20097;-61
2021/12/27 00:20:52;;;;;;;23.05;16.23;;;0.30;99.90;;;;;;5053904;28;20529;-61
2021/12/27 00:23:17;;;;;;;16.80;12.57;;;0.30;99.90;;;;;;5053833;28;20049;-60
2021/12/27 00:25:43;;;;;;;20.45;14.85;;;0.30;99.90;;;;;;5054234;28;20049;-61
2021/12/27 00:28:08;;;;;;;22.60;16.02;;;0.30;99.90;;;;;;5066733;28;20043;-61
2021/12/27 00:30:34;;;;;;;21.90;14.68;;;0.30;99.90;;;;;;5070632;28;20167;-61
2021/12/27 00:33:00;;;;;;;23.90;16.02;;;0.30;99.90;;;;;;5057535;28;20501;-61
2021/12/27 00:35:26;;;;;;;23.08;15.27;;;0.30;99.90;;;;;;5066204;28;20047;-61
2021/12/27 00:37:53;;;;;;;25.42;16.88;;;0.40;99.90;;;;;;5067599;28;20154;-61
2021/12/27 00:40:18;;;;;;;23.63;16.80;;;0.40;99.90;;;;;;5066026;28;20036;-61
2021/12/27 00:42:44;;;;;;;22.75;16.02;;;0.40;99.90;;;;;;5062093;28;20110;-61
2021/12/27 00:45:11;;;;;;;21.30;14.32;;;0.40;99.90;;;;;;5068053;28;20119;-61
2021/12/27 00:47:37;;;;;;;23.33;17.23;;;0.40;99.90;;;;;;5065873;28;20442;-61
2021/12/27 00:50:04;;;;;;;21.02;15.65;;;0.40;99.90;;;;;;5060306;28;20128;-61
2021/12/27 00:52:30;;;;;;;23.88;15.70;;;0.40;99.90;;;;;;5062081;28;20502;-61
2021/12/27 00:54:56;;;;;;;24.52;16.50;;;0.40;99.90;;;;;;5067307;28;20533;-61
2021/12/27 00:57:21;;;;;;;23.17;15.75;;;0.40;99.90;;;;;;5063634;28;20037;-61
2021/12/27 00:59:47;;;;;;;22.63;16.90;;;0.40;99.90;;;;;;5061203;28;20037;-61
2021/12/27 01:02:12;;;;;;;24.63;16.73;;;0.50;99.90;;;;;;5059426;28;20045;-61
2021/12/27 01:04:38;;;;;;;24.17;17.17;;;0.50;99.90;;;;;;5065071;28;20542;-61
2021/12/27 01:07:03;;;;;;;22.80;16.35;;;0.50;99.90;;;;;;5059422;28;20048;-61
2021/12/27 01:10:11;;;;;;;22.05;16.25;;;0.50;99.90;;;;;;5059238;28;20056;-61
2021/12/27 01:12:32;;;;;;;21.33;15.90;;;0.50;99.90;;;;;;5067002;28;20536;-61
2021/12/27 01:17:47;;;;;;;24.45;17.20;;;0.50;99.90;;;;;;5064444;28;20436;-61
2021/12/27 01:20:20;;;;;;;25.67;17.65;;;0.50;99.90;;;;;;5058784;28;20542;-60
2021/12/27 01:22:46;;;;;;;24.05;17.90;;;0.40;99.90;;;;;;5058581;28;20051;-61
2021/12/27 01:25:12;;;;;;;21.52;14.68;;;0.50;99.90;;;;;;5063935;28;20032;-61
2021/12/27 01:27:40;;;;;;;24.40;16.98;;;0.50;99.90;;;;;;5062710;28;20091;-61
2021/12/27 01:30:08;;;;;;;23.85;16.98;;;0.50;99.90;;;;;;5063082;28;20036;-61
2021/12/27 01:32:39;;;;;;;24.00;17.38;;;0.50;99.90;;;;;;5059741;28;20075;-61
2021/12/27 01:35:05;;;;;;;24.63;17.67;;;0.50;99.90;;;;;;5062208;28;20570;-62
2021/12/27 01:37:31;;;;;;;19.00;12.90;;;0.50;99.90;;;;;;5064563;28;20378;-61
2021/12/27 01:39:57;;;;;;;25.15;17.48;;;0.50;99.90;;;;;;5060984;28;20048;-61
2021/12/27 01:42:23;;;;;;;25.25;17.77;;;0.50;99.90;;;;;;5061837;28;20073;-60
2021/12/27 01:44:49;;;;;;;23.48;15.95;;;0.50;99.90;;;;;;5061069;28;20044;-60
2021/12/27 01:47:14;;;;;;;24.90;17.50;;;0.50;99.90;;;;;;5060819;28;20132;-60
2021/12/27 01:49:40;;;;;;;25.42;16.98;;;0.50;99.90;;;;;;5064583;28;20040;-60
2021/12/27 01:52:06;;;;;;;26.70;17.60;;;0.50;99.90;;;;;;5067526;28;20037;-61
2021/12/27 01:54:32;;;;;;;25.42;17.88;;;0.50;99.90;;;;;;5057400;28;20106;-61
2021/12/27 01:56:58;;;;;;;26.05;17.30;;;0.50;99.90;;;;;;5055242;28;20047;-61
2021/12/27 01:59:24;;;;;;;23.58;16.75;;;0.50;99.90;;;;;;5063954;28;20076;-59
2021/12/27 02:01:49;;;;;;;26.67;18.88;;;0.50;99.90;;;;;;5064515;28;20079;-61
2021/12/27 02:04:15;;;;;;;25.35;17.38;;;0.50;99.90;;;;;;5063105;28;20098;-61
2021/12/27 02:06:41;;;;;;;22.85;14.45;;;0.50;99.90;;;;;;5061991;28;20521;-61
2021/12/27 02:09:06;;;;;;;29.83;19.45;;;0.50;99.90;;;;;;5063189;28;20036;-61
2021/12/27 02:11:35;;;;;;;26.02;18.48;;;0.50;99.90;;;;;;5058038;28;20055;-61
2021/12/27 02:14:03;;;;;;;26.95;19.30;;;0.50;99.90;;;;;;5058712;28;20393;-61
2021/12/27 02:16:28;;;;;;;;;;;0.50;99.90;;;;;;5060241;28;20076;-61
2021/12/27 02:18:54;;;;;;;24.42;17.67;;;0.50;99.90;;;;;;5063318;28;19970;-61
2021/12/27 02:21:22;;;;;;;25.65;16.92;;;0.60;99.90;;;;;;5065176;28;20119;-61
2021/12/27 02:23:50;;;;;;;26.58;18.27;;;0.50;99.90;;;;;;5064517;28;20041;-61
2021/12/27 02:26:16;;;;;;;28.92;20.10;;;0.60;99.90;;;;;;5060304;28;20055;-60
2021/12/27 02:28:42;;;;;;;24.33;17.23;;;0.50;99.90;;;;;;5061032;28;20139;-60
2021/12/27 02:31:08;;;;;;;27.13;19.63;;;0.60;99.90;;;;;;5065628;28;20040;-61
2021/12/27 02:33:39;;;;;;;26.35;18.52;;;0.60;99.90;;;;;;5059143;28;20041;-60
2021/12/27 02:36:06;;;;;;;26.70;17.90;;;0.60;99.90;;;;;;5061407;28;20030;-60
2021/12/27 02:38:36;;;;;;;27.67;18.63;;;0.60;99.90;;;;;;5057115;28;20063;-61
2021/12/27 02:41:02;;;;;;;27.17;19.95;;;0.60;99.90;;;;;;5058924;28;20053;-61
2021/12/27 02:43:30;;;;;;;26.05;18.55;;;0.60;99.90;;;;;;5057920;28;20087;-61
2021/12/27 02:46:02;;;;;;;26.33;18.90;;;0.60;99.90;;;;;;5059218;28;20036;-61
2021/12/27 02:48:34;;;;;;;29.15;19.38;;;0.60;99.90;;;;;;5062077;28;20191;-60
2021/12/27 02:51:00;;;;;;;28.73;19.45;;;0.60;99.90;;;;;;5060191;28;20032;-60
2021/12/27 02:53:28;;;;;;;29.33;19.02;;;0.60;99.90;;;;;;5061904;28;20525;-61
2021/12/27 02:55:55;;;;;;;26.42;18.85;;;0.60;99.90;;;;;;5062113;28;20037;-61
2021/12/27 02:58:22;;;;;;;28.60;18.13;;;0.60;99.90;;;;;;5061341;28;20759;-60
2021/12/27 03:00:49;;;;;;;29.23;20.00;;;0.60;99.90;;;;;;5058658;28;20041;-61
2021/12/27 03:03:15;;;;;;;27.10;19.63;;;0.60;99.90;;;;;;5068069;28;20567;-61
2021/12/27 03:05:44;;;;;;;28.55;19.17;;;0.60;99.90;;;;;;5058181;28;20045;-61
2021/12/27 03:08:14;;;;;;;27.15;19.10;;;0.60;99.90;;;;;;5063204;28;20504;-61
2021/12/27 03:10:42;;;;;;;27.63;19.08;;;0.60;99.90;;;;;;5061199;28;20222;-61
2021/12/27 03:13:14;;;;;;;23.35;16.45;;;0.60;99.90;;;;;;5057846;28;20049;-61
2021/12/27 03:15:39;;;;;;;25.45;18.27;;;0.60;99.90;;;;;;5057412;28;20044;-60
2021/12/27 03:18:05;;;;;;;24.60;18.23;;;0.60;99.90;;;;;;5063547;28;20509;-61
2021/12/27 03:20:30;;;;;;;26.85;19.27;;;0.60;99.90;;;;;;5054830;28;20049;-60
2021/12/27 03:22:56;;;;;;;28.63;19.05;;;0.70;99.90;;;;;;5064214;28;20052;-61
2021/12/27 03:25:24;;;;;;;28.48;18.73;;;0.60;99.90;;;;;;5056727;28;20044;-60
2021/12/27 03:27:51;;;;;;;26.25;18.45;;;0.70;99.90;;;;;;5058859;28;20040;-61
2021/12/27 03:30:22;;;;;;;24.75;17.27;;;0.70;99.90;;;;;;5061160;28;20037;-61
2021/12/27 03:32:48;;;;;;;29.45;19.52;;;0.70;99.90;;;;;;5063921;28;20033;-61
2021/12/27 03:35:17;;;;;;;28.50;19.33;;;0.70;99.90;;;;;;5060567;28;20731;-61
2021/12/27 03:37:48;;;;;;;28.25;19.48;;;0.70;99.90;;;;;;5064449;28;20102;-60
2021/12/27 03:40:16;;;;;;;28.92;20.08;;;0.70;99.90;;;;;;5061976;28;20049;-60
2021/12/27 03:42:42;;;;;;;25.45;16.75;;;0.70;99.90;;;;;;5061941;28;20036;-61
2021/12/27 03:45:08;;;;;;;26.65;18.75;;;0.70;99.90;;;;;;5062196;28;20033;-61
2021/12/27 03:47:35;;;;;;;28.20;20.83;;;0.70;99.90;;;;;;5057444;28;20032;-61
2021/12/27 03:50:00;;;;;;;29.60;19.80;;;0.70;99.90;;;;;;5063667;28;20078;-61
2021/12/27 03:52:26;;;;;;;27.13;19.02;;;0.70;99.90;;;;;;5064994;28;20068;-60
2021/12/27 03:54:51;;;;;;;26.35;18.40;;;0.70;99.90;;;;;;5061165;28;20189;-60
2021/12/27 03:57:17;;;;;;;27.33;18.90;;;0.70;99.90;;;;;;5061687;28;20089;-61
2021/12/27 04:02:11;;;;;;;26.70;18.15;;;0.80;99.90;;;;;;5067841;28;20069;-61
2021/12/27 04:04:37;;;;;;;28.38;19.02;;;0.70;99.90;;;;;;5066993;28;20052;-61
2021/12/27 04:07:03;;;;;;;28.40;19.48;;;0.70;99.90;;;;;;5063559;28;20041;-61
2021/12/27 04:09:28;;;;;;;27.30;19.75;;;0.70;99.90;;;;;;5065348;28;20040;-60
2021/12/27 04:11:54;;;;;;;25.88;16.67;;;0.70;99.90;;;;;;5064118;28;20055;-60
2021/12/27 04:14:20;;;;;;;29.55;19.67;;;0.70;99.90;;;;;;5067285;28;20167;-61
2021/12/27 04:16:46;;;;;;;28.70;18.98;;;0.70;99.90;;;;;;5069053;28;20044;-60
2021/12/27 04:19:13;;;;;;;29.90;20.30;;;0.70;99.90;;;;;;5069998;28;20039;-60
2021/12/27 04:21:39;;;;;;;28.90;20.80;;;0.70;99.90;;;;;;5056727;28;20056;-60
2021/12/27 04:24:05;;;;;;;26.70;19.42;;;0.70;99.90;;;;;;5069375;28;20055;-59
2021/12/27 04:26:30;;;;;;;30.17;18.83;;;0.70;99.90;;;;;;5061952;28;20040;-60
2021/12/27 04:28:56;;;;;;;27.95;20.27;;;0.70;99.90;;;;;;5065526;28;20044;-60
2021/12/27 04:31:21;;;;;;;29.17;21.08;;;0.70;99.90;;;;;;5066151;28;20047;-60
2021/12/27 04:33:47;;;;;;;28.58;21.30;;;0.70;99.90;;;;;;5062126;28;20072;-61
2021/12/27 04:36:12;;;;;;;28.45;19.52;;;0.70;99.90;;;;;;5064011;28;20040;-60
2021/12/27 04:38:38;;;;;;;29.42;20.40;;;0.70;99.90;;;;;;5065803;28;20036;-60
2021/12/27 04:41:05;;;;;;;28.40;19.70;;;0.70;99.90;;;;;;5071521;28;20086;-60
2021/12/27 04:43:31;;;;;;;29.75;21.55;;;0.70;99.90;;;;;;5069162;28;20048;-60
2021/12/27 04:45:58;;;;;;;29.77;20.67;;;0.70;99.90;;;;;;5070811;28;20059;-61
2021/12/27 04:48:25;;;;;;;28.40;20.67;;;0.70;99.90;;;;;;5063207;28;20044;-60
2021/12/27 04:50:50;;;;;;;30.35;20.48;;;0.70;99.90;;;;;;5061465;28;20083;-60
2021/12/27 04:53:16;;;;;;;30.92;21.48;;;0.80;99.90;;;;;;5067721;28;20115;-60
2021/12/27 04:55:44;;;;;;;30.60;21.33;;;0.80;99.90;;;;;;5063967;28;20041;-61
2021/12/27 04:58:10;;;;;;;30.50;21.15;;;0.80;99.90;;;;;;5065518;28;20036;-60
2021/12/27 05:00:38;;;;;;;28.75;19.58;;;0.80;99.90;;;;;;5066662;28;20094;-60
2021/12/27 05:03:04;;;;;;;28.67;21.92;;;0.80;99.90;;;;;;5069441;28;20044;-60
2021/12/27 05:05:31;;;;;;;29.42;20.67;;;0.80;99.90;;;;;;5061578;28;20090;-61
2021/12/27 05:07:57;;;;;;;30.55;21.08;;;0.80;99.90;;;;;;5060359;28;20048;-61
2021/12/27 05:10:25;;;;;;;29.63;20.15;;;0.80;99.90;;;;;;5062291;28;20056;-61
2021/12/27 05:12:50;;;;;;;32.70;21.20;;;0.80;99.90;;;;;;5063408;28;20072;-61
2021/12/27 05:15:16;;;;;;;31.73;21.77;;;0.80;99.90;;;;;;5063359;28;20549;-61
2021/12/27 05:17:41;;;;;;;31.20;21.35;;;0.80;99.90;;;;;;5069374;28;20412;-61
2021/12/27 05:20:08;;;;;;;30.33;20.20;;;0.80;99.90;;;;;;5059800;28;20135;-61
2021/12/27 05:22:34;;;;;;;30.75;21.73;;;0.80;99.90;;;;;;5067161;28;20098;-60
2021/12/27 05:25:00;;;;;;;30.45;21.70;;;0.90;99.90;;;;;;5069958;28;20052;-60
2021/12/27 05:27:26;;;;;;;28.00;19.98;;;0.80;99.90;;;;;;5069595;28;20033;-61
2021/12/27 05:29:52;;;;;;;32.05;21.48;;;0.80;99.90;;;;;;5068210;28;20052;-61
2021/12/27 05:32:18;;;;;;;30.35;20.65;;;0.90;99.90;;;;;;5064986;28;20120;-61
2021/12/27 05:34:43;;;;;;;32.72;22.00;;;0.90;99.90;;;;;;5059205;28;20044;-60
2021/12/27 05:37:09;;;;;;;34.00;22.40;;;0.80;99.90;;;;;;5065509;28;20044;-61
2021/12/27 05:39:36;;;;;;;33.17;22.58;;;0.80;99.90;;;;;;5063737;28;20036;-60
2021/12/27 05:42:02;;;;;;;32.33;22.75;;;0.80;99.90;;;;;;5067077;28;20056;-61
2021/12/27 05:44:27;;;;;;;31.85;21.88;;;0.80;99.90;;;;;;5063106;28;20095;-61
2021/12/27 05:46:54;;;;;;;35.63;23.13;;;0.80;99.90;;;;;;5058928;28;20048;-61
2021/12/27 05:49:21;;;;;;;35.45;23.60;;;0.80;99.90;;;;;;5060621;28;20037;-61
2021/12/27 05:51:46;;;;;;;35.85;23.40;;;0.80;99.90;;;;;;5062157;28;20119;-61
2021/12/27 05:54:13;;;;;;;35.17;24.67;;;0.80;99.90;;;;;;5068873;28;20111;-61
2021/12/27 05:56:39;;;;;;;38.45;25.38;;;0.80;99.90;;;;;;5064457;28;20044;-61
2021/12/27 05:59:05;;;;;;;37.70;22.67;;;0.80;99.90;;;;;;5063654;28;20060;-61
2021/12/27 06:01:31;;;;;;;34.47;23.58;;;0.80;99.90;;;;;;5061723;28;20045;-61
2021/12/27 06:03:58;;;;;;;37.55;24.25;;;0.80;99.90;;;;;;5063529;28;20214;-61
2021/12/27 06:06:25;;;;;;;39.17;25.35;;;0.80;99.90;;;;;;5070000;28;20075;-61
2021/12/27 06:08:50;;;;;;;38.42;24.13;;;0.80;99.90;;;;;;5062759;28;20075;-60
2021/12/27 06:11:16;;;;;;;38.75;25.20;;;0.80;99.90;;;;;;5064725;28;20084;-61
2021/12/27 06:13:43;;;;;;;35.95;23.60;;;0.80;99.90;;;;;;5065782;28;20040;-61
2021/12/27 06:16:09;;;;;;;35.55;23.65;;;0.70;99.90;;;;;;5065496;28;20048;-61
2021/12/27 06:18:35;;;;;;;40.03;23.40;;;0.80;99.90;;;;;;5057422;28;20056;-61
2021/12/27 06:21:02;;;;;;;34.88;24.05;;;0.80;99.90;;;;;;5068711;28;20041;-61
2021/12/27 06:23:27;;;;;;;39.65;25.33;;;0.80;99.90;;;;;;5066395;28;20040;-61
2021/12/27 06:25:53;;;;;;;35.53;24.23;;;0.80;99.90;;;;;;5057122;28;20384;-61
2021/12/27 06:28:19;;;;;;;37.55;23.98;;;0.80;99.90;;;;;;5065024;28;20047;-61
2021/12/27 06:30:44;;;;;;;36.17;24.40;;;0.80;99.90;;;;;;5070204;28;20041;-61
2021/12/27 06:33:10;;;;;;;38.20;24.48;;;0.80;99.90;;;;;;5061131;28;20182;-61
2021/12/27 06:35:36;;;;;;;38.70;26.00;;;0.80;99.90;;;;;;5066468;28;20193;-61
2021/12/27 06:38:03;;;;;;;34.80;23.55;;;0.90;99.90;;;;;;5065565;28;20124;-61
2021/12/27 06:40:30;;;;;;;36.67;23.17;;;0.90;99.90;;;;;;5064361;28;20650;-61
2021/12/27 06:42:57;;;;;;;36.17;23.73;;;0.90;99.90;;;;;;5065134;28;20402;-61
2021/12/27 06:45:22;;;;;;;33.45;21.73;;;0.90;99.90;;;;;;5056913;28;20372;-60
2021/12/27 06:47:48;;;;;;;36.70;24.45;;;0.90;99.90;;;;;;5067417;28;20047;-60
2021/12/27 06:50:13;;;;;;;39.20;25.23;;;0.90;99.90;;;;;;5066749;28;20612;-60
2021/12/27 06:52:39;;;;;;;38.45;25.20;;;0.90;99.90;;;;;;5064732;28;20556;-61
2021/12/27 06:55:06;;;;;;;40.20;25.10;;;0.90;99.90;;;;;;5058038;28;20445;-61
2021/12/27 06:57:31;;;;;;;37.05;22.92;;;0.90;99.90;;;;;;5061436;28;20040;-61
2021/12/27 06:59:58;;;;;;;39.38;24.30;;;0.90;99.90;;;;;;5057406;28;20041;-61
2021/12/27 07:02:23;;;;;;;37.30;23.17;;;1.00;99.90;;;;;;5057336;28;20432;-61
2021/12/27 07:04:49;;;;;;;36.72;22.60;;;0.90;99.90;;;;;;5054679;28;20094;-61
2021/12/27 07:07:15;;;;;;;40.45;23.88;;;0.90;99.90;;;;;;5056535;28;20410;-61
2021/12/27 07:09:40;;;;;;;34.63;21.77;;;0.90;99.90;;;;;;5061562;28;20064;-61
2021/12/27 07:12:06;;;;;;;37.90;24.70;;;0.90;99.90;;;;;;5057969;28;20087;-61
2021/12/27 07:14:32;;;;;;;40.45;23.38;;;1.00;99.90;;;;;;5060526;28;20052;-61
2021/12/27 07:16:58;;;;;;;40.35;25.20;;;1.00;99.90;;;;;;5053872;28;20037;-61
2021/12/27 07:19:23;;;;;;;35.22;21.20;;;1.00;99.90;;;;;;5054909;28;20127;-60
2021/12/27 07:21:49;;;;;;;38.55;24.02;;;1.00;99.90;;;;;;5060542;28;20117;-61
2021/12/27 07:24:14;;;;;;;43.03;25.00;;;1.00;99.90;;;;;;5063526;28;20102;-61
2021/12/27 07:26:40;;;;;;;41.65;24.95;;;1.00;99.90;;;;;;5063441;28;20075;-61
2021/12/27 07:29:06;;;;;;;39.03;23.45;;;1.10;99.90;;;;;;5065999;28;20101;-61
2021/12/27 07:31:31;;;;;;;42.47;25.73;;;1.10;99.90;;;;;;5058083;28;20448;-61
2021/12/27 07:34:00;;;;;;;44.00;25.63;;;1.10;99.90;;;;;;5056524;28;20051;-61
2021/12/27 07:36:26;;;;;;;37.25;23.65;;;1.10;99.90;;;;;;5062502;28;20138;-61
2021/12/27 07:38:52;;;;;;;40.72;24.40;;;1.10;99.90;;;;;;5060302;28;20478;-61
2021/12/27 07:41:18;;;;;;;49.58;25.92;;;1.10;99.90;;;;;;5059835;28;20052;-60
2021/12/27 07:43:43;;;;;;;48.75;24.85;;;1.10;99.90;;;;;;5066811;28;20378;-61
2021/12/27 07:46:09;;;;;;;42.47;25.10;;;1.10;99.90;;;;;;5062158;28;20393;-61
2021/12/27 07:48:34;;;;;;;42.55;24.88;;;1.20;99.90;;;;;;5059055;28;20045;-60
2021/12/27 07:51:00;;;;;;;45.33;24.48;;;1.10;99.90;;;;;;5060277;28;20041;-61
2021/12/27 07:53:25;;;;;;;43.88;24.95;;;1.20;99.90;;;;;;5059319;28;20766;-61
2021/12/27 07:55:51;;;;;;;47.10;23.63;;;1.20;99.90;;;;;;5057251;28;20044;-61
2021/12/27 07:58:16;;;;;;;50.90;25.63;;;1.20;99.90;;;;;;5059114;28;20448;-60
2021/12/27 08:00:42;;;;;;;49.28;25.92;;;1.20;99.90;;;;;;5053330;28;20044;-61
2021/12/27 08:03:07;;;;;;;50.72;24.98;;;1.30;99.90;;;;;;5059471;28;20396;-61
2021/12/27 08:05:33;;;;;;;49.75;25.83;;;1.30;99.90;;;;;;5055010;28;20486;-61
2021/12/27 08:07:59;;;;;;;51.92;24.52;;;1.30;99.90;;;;;;5058827;28;20059;-60
2021/12/27 08:10:25;;;;;;;55.90;25.40;;;1.30;99.90;;;;;;5056211;28;20049;-61
2021/12/27 08:12:51;;;;;;;48.78;25.70;;;1.30;99.90;;;;;;5063175;28;20044;-61
2021/12/27 08:15:16;;;;;;;50.00;26.00;;;1.30;99.90;;;;;;5061974;28;20697;-60
2021/12/27 08:17:42;;;;;;;64.88;27.33;;;1.30;99.90;;;;;;5053538;28;20045;-61
2021/12/27 08:20:08;;;;;;;53.47;25.08;;;1.30;99.90;;;;;;5059340;28;20047;-61
2021/12/27 08:22:34;;;;;;;53.15;27.35;;;1.40;99.90;;;;;;5056363;28;20506;-60
2021/12/27 08:25:00;;;;;;;54.53;25.38;;;1.40;99.90;;;;;;5059833;28;20080;-61
2021/12/27 08:27:28;;;;;;;51.80;25.63;;;1.40;99.90;;;;;;5059519;28;20041;-61
2021/12/27 08:29:54;;;;;;;;;;;1.40;99.90;;;;;;5064108;28;20113;-59
2021/12/27 08:32:19;;;;;;;58.83;26.70;;;1.50;99.90;;;;;;5063812;28;19924;-61
2021/12/27 08:34:45;;;;;;;57.85;26.58;;;1.50;99.90;;;;;;5053539;28;20041;-61
2021/12/27 08:37:11;;;;;;;60.70;27.52;;;1.50;99.90;;;;;;5058383;28;20048;-61
2021/12/27 08:39:38;;;;;;;67.15;27.75;;;1.50;99.90;;;;;;5062095;28;20481;-61
2021/12/27 08:42:08;;;;;;;73.32;30.38;;;1.50;99.90;;;;;;5056500;28;20502;-61
2021/12/27 08:44:35;;;;;;;67.25;29.02;;;1.60;99.90;;;;;;5059673;28;20052;-61
2021/12/27 08:47:01;;;;;;;74.22;29.92;;;1.60;99.90;;;;;;5062333;28;20047;-61
2021/12/27 08:49:26;;;;;;;67.93;28.58;;;1.60;99.90;;;;;;5063868;28;20048;-61
2021/12/27 08:51:52;;;;;;;74.55;28.92;;;1.60;99.90;;;;;;5063965;28;20052;-61
2021/12/27 08:54:18;;;;;;;62.72;27.25;;;1.60;99.90;;;;;;5061428;28;20522;-61
2021/12/27 08:56:43;;;;;;;72.55;28.98;;;1.60;99.90;;;;;;5062520;28;20068;-61
2021/12/27 08:59:09;;;;;;;78.47;31.10;;;1.60;99.90;;;;;;5066344;28;20486;-61
2021/12/27 09:01:35;;;;;;;64.00;28.95;;;1.70;99.90;;;;;;5065110;28;20052;-60
2021/12/27 09:04:00;;;;;;;82.85;31.85;;;1.70;99.90;;;;;;5066125;28;20055;-60
2021/12/27 09:06:26;;;;;;;87.07;32.03;;;1.70;99.90;;;;;;5064227;28;20398;-60
2021/12/27 09:08:51;;;;;;;81.10;31.80;;;1.70;99.90;;;;;;5060937;28;20037;-61
2021/12/27 09:11:17;;;;;;;74.53;28.38;;;1.70;99.90;;;;;;5065044;28;20413;-61
2021/12/27 09:13:43;;;;;;;76.78;28.00;;;1.70;99.90;;;;;;5061558;28;20045;-61
2021/12/27 09:16:10;;;;;;;79.40;28.20;;;1.70;99.90;;;;;;5060577;28;20037;-61
2021/12/27 09:18:36;;;;;;;78.05;30.17;;;1.70;99.90;;;;;;5058566;28;20071;-59
2021/12/27 09:21:03;;;;;;;73.13;29.42;;;1.80;99.90;;;;;;5063039;28;20514;-61
2021/12/27 09:23:29;;;;;;;82.20;29.73;;;1.80;99.90;;;;;;5066146;28;20048;-61
2021/12/27 09:25:55;;;;;;;78.95;29.92;;;1.80;99.90;;;;;;5062319;28;20057;-61
2021/12/27 09:28:21;;;;;;;79.38;31.30;;;1.90;99.90;;;;;;5059234;28;20505;-61
2021/12/27 09:30:46;;;;;;;79.03;30.77;;;1.90;99.90;;;;;;5062610;28;20154;-60
2021/12/27 09:33:12;;;;;;;79.88;29.90;;;1.90;99.90;;;;;;5062048;28;20546;-60
2021/12/27 09:35:39;;;;;;;75.90;29.45;;;1.90;99.90;;;;;;5063163;28;20055;-61
2021/12/27 09:38:04;;;;;;;84.75;30.20;;;1.90;99.90;;;;;;5061558;28;20040;-60
2021/12/27 09:40:30;;;;;;;78.13;31.20;;;1.90;99.90;;;;;;5059627;28;20048;-61
2021/12/27 09:42:58;;;;;;;92.68;31.65;;;2.00;99.90;;;;;;5065376;28;20032;-61
2021/12/27 09:45:23;;;;;;;79.32;31.60;;;2.00;99.90;;;;;;5056673;28;20049;-61
2021/12/27 09:47:51;;;;;;;107.10;32.78;;;2.00;99.90;;;;;;5059337;28;20048;-61
2021/12/27 09:50:28;;;;;;;96.65;32.70;;;2.00;99.90;;;;;;5061330;28;20162;-61
2021/12/27 09:52:54;;;;;;;107.47;33.83;;;2.00;99.90;;;;;;5071033;28;20090;-61
2021/12/27 09:55:19;;;;;;;100.28;31.48;;;2.00;99.90;;;;;;5078297;28;20552;-61
2021/12/27 09:57:45;;;;;;;91.28;31.45;;;2.00;99.90;;;;;;5065149;28;20159;-61
2021/12/27 10:00:12;;;;;;;123.15;34.13;;;2.00;99.90;;;;;;5057665;28;20053;-61
2021/12/27 10:02:39;;;;;;;107.18;34.42;;;2.00;99.90;;;;;;5066543;28;20394;-61
2021/12/27 10:05:06;;;;;;;95.95;31.30;;;2.10;99.90;;;;;;5062252;28;20054;-61
2021/12/27 10:07:34;;;;;;;125.40;36.20;;;2.10;99.90;;;;;;5059680;28;20186;-61
2021/12/27 10:10:00;;;;;;;94.35;32.25;;;2.10;99.90;;;;;;5057717;28;20053;-60
2021/12/27 10:12:29;;;;;;;96.28;32.63;;;2.10;99.90;;;;;;5059241;28;20108;-61
2021/12/27 10:15:00;;;;;;;104.68;34.22;;;2.10;99.90;;;;;;5059079;28;20048;-60
2021/12/27 10:17:29;;;;;;;100.00;34.20;;;2.20;99.90;;;;;;5061105;28;20048;-61
2021/12/27 10:19:55;;;;;;;98.13;33.85;;;2.20;99.90;;;;;;5068935;28;20048;-61
2021/12/27 10:22:24;;;;;;;106.95;31.05;;;2.20;99.90;;;;;;5066942;28;20048;-61
2021/12/27 10:24:51;;;;;;;106.03;34.25;;;2.20;99.90;;;;;;5063736;28;20052;-61
2021/12/27 10:27:18;;;;;;;120.50;35.95;;;2.30;99.90;;;;;;5062941;28;20062;-60
2021/12/27 10:29:44;;;;;;;124.95;36.30;;;2.30;99.90;;;;;;5071172;28;20170;-61
2021/12/27 10:32:16;;;;;;;133.18;38.35;;;2.30;99.90;;;;;;5071335;28;20067;-61
2021/12/27 10:34:52;;;;;;;94.18;31.80;;;2.30;99.90;;;;;;5070100;28;20044;-60
2021/12/27 10:37:30;;;;;;;104.00;33.00;;;2.40;99.90;;;;;;5068461;28;20040;-61
2021/12/27 10:40:05;;;;;;;96.75;33.28;;;2.40;99.90;;;;;;5070590;28;20128;-60
2021/12/27 10:42:42;;;;;;;107.53;33.63;;;2.40;99.90;;;;;;5061244;28;20125;-61
2021/12/27 10:45:14;;;;;;;105.15;34.50;;;2.40;99.90;;;;;;5064805;28;20407;-61
2021/12/27 10:47:47;;;;;;;91.40;32.30;;;2.40;99.90;;;;;;5064544;28;20158;-61
2021/12/27 10:50:23;;;;;;;115.25;35.35;;;2.50;99.90;;;;;;5066666;28;20045;-61
2021/12/27 10:53:02;;;;;;;108.43;35.13;;;2.40;99.90;;;;;;5062372;28;20084;-61
2021/12/27 10:55:31;;;;;;;103.82;32.85;;;2.50;99.90;;;;;;5062215;28;20194;-61
2021/12/27 10:58:14;;;;;;;89.90;31.35;;;2.50;99.90;;;;;;5061664;28;20097;-60
2021/12/27 11:00:41;;;;;;;108.55;33.90;;;2.50;99.90;;;;;;5067345;28;20463;-61
2021/12/27 11:03:06;;;;;;;101.90;32.05;;;2.50;99.90;;;;;;5058950;28;20049;-61
2021/12/27 11:05:36;;;;;;;100.50;33.47;;;2.60;99.90;;;;;;5071516;28;20040;-61
2021/12/27 11:08:05;;;;;;;88.53;32.38;;;2.60;99.90;;;;;;5064231;28;20530;-61
2021/12/27 11:10:34;;;;;;;100.30;31.80;;;2.60;99.90;;;;;;5061380;28;20064;-61
2021/12/27 11:13:01;;;;;;;90.00;31.70;;;2.60;99.90;;;;;;5067210;28;20113;-61
2021/12/27 11:15:29;;;;;;;87.70;32.05;;;2.60;99.90;;;;;;5062371;28;20041;-59
2021/12/27 11:17:55;;;;;;;;;;;2.60;99.90;;;;;;5060185;28;20032;-60
2021/12/27 11:20:22;;;;;;;99.72;33.28;;;2.70;99.90;;;;;;5069712;28;19927;-60
2021/12/27 11:22:51;;;;;;;91.20;31.70;;;2.70;99.90;;;;;;5053060;28;20041;-60
2021/12/27 11:25:29;;;;;;;79.43;30.45;;;2.70;99.90;;;;;;5068115;28;20119;-61
2021/12/27 11:27:55;;;;;;;78.53;29.88;;;2.70;99.90;;;;;;5067131;28;20048;-61
2021/12/27 11:30:25;;;;;;;84.05;31.35;;;2.70;99.90;;;;;;5062013;28;20040;-60
2021/12/27 11:33:06;;;;;;;76.72;30.25;;;2.80;99.90;;;;;;5060929;28;20048;-61
2021/12/27 11:35:37;;;;;;;83.03;32.42;;;2.80;99.90;;;;;;5065775;28;20047;-60
2021/12/27 11:38:04;;;;;;;84.68;31.60;;;2.80;99.90;;;;;;5059556;28;20439;-61
2021/12/27 11:40:42;;;;;;;76.55;30.75;;;2.80;99.90;;;;;;5054168;28;20037;-61
2021/12/27 11:43:08;;;;;;;79.45;30.20;;;2.80;99.90;;;;;;5065411;28;20041;-61
2021/12/27 11:45:50;;;;;;;82.78;30.30;;;2.90;99.90;;;;;;5061264;28;20072;-60
2021/12/27 11:48:19;;;;;;;75.72;31.08;;;2.90;99.90;;;;;;5063177;28;20093;-61
2021/12/27 11:51:00;;;;;;;79.68;29.85;;;2.90;99.90;;;;;;5063415;28;20474;-61
2021/12/27 11:53:31;;;;;;;73.50;29.92;;;3.00;99.90;;;;;;5051124;28;20075;-61
2021/12/27 11:55:57;;;;;;;67.43;28.35;;;3.00;99.90;;;;;;5055222;28;20045;-60
2021/12/27 11:58:34;;;;;;;65.07;28.23;;;3.10;99.90;;;;;;5063889;28;20045;-61
2021/12/27 12:01:20;;;;;;;68.80;28.53;;;3.10;99.90;;;;;;5068482;28;20410;-61
2021/12/27 12:03:48;;;;;;;59.08;27.85;;;3.20;99.90;;;;;;5058225;28;21647;-61
2021/12/27 12:06:38;;;;;;;58.30;26.97;;;3.20;99.90;;;;;;5065203;28;20037;-61
2021/12/27 12:09:18;;;;;;;58.67;27.25;;;3.30;99.90;;;;;;5063707;28;20333;-61
2021/12/27 12:11:45;;;;;;;54.00;25.50;;;3.40;99.90;;;;;;5064068;28;20061;-61
2021/12/27 12:14:52;;;;;;;50.55;25.20;;;3.40;99.90;;;;;;5069201;28;20562;-61
2021/12/27 12:17:41;;;;;;;38.78;17.90;;;3.50;99.90;;;;;;5061152;28;20184;-61
2021/12/27 12:20:34;;;;;;;44.78;23.55;;;3.80;99.90;;;;;;5064041;28;20246;-61
2021/12/27 12:23:05;;;;;;;38.67;18.85;;;3.80;99.90;;;;;;5071698;28;20502;-61
2021/12/27 12:25:31;;;;;;;43.55;23.33;;;3.90;99.90;;;;;;5068289;28;20554;-61
2021/12/27 12:28:04;;;;;;;46.90;23.50;;;3.90;99.90;;;;;;5065295;28;20076;-61
2021/12/27 12:30:34;;;;;;;44.28;22.65;;;4.00;99.90;;;;;;5062960;28;20056;-61
2021/12/27 12:33:10;;;;;;;40.88;21.70;;;4.10;99.90;;;;;;5059714;28;20403;-61
2021/12/27 12:35:47;;;;;;;42.13;22.83;;;4.00;99.90;;;;;;5068218;28;20159;-60
2021/12/27 12:38:35;;;;;;;32.95;20.45;;;4.10;99.90;;;;;;5063873;28;20083;-61
2021/12/27 12:41:07;;;;;;;37.20;21.45;;;4.10;99.90;;;;;;5068221;28;20052;-61
2021/12/27 12:43:38;;;;;;;32.90;19.75;;;4.10;99.90;;;;;;5059082;28;20040;-61
2021/12/27 12:46:25;;;;;;;35.13;20.30;;;4.10;99.90;;;;;;5060023;28;20083;-61